createdAt,value
2022-08-20T00:04:24.924Z,100860.26
2022-08-20T00:08:57.482Z,100857.48
2022-08-20T00:13:45.304Z,100857.45
2022-08-20T00:18:31.811Z,100857.92
2022-08-20T00:23:18.437Z,100865.71
2022-08-20T00:27:51.675Z,100857.38
2022-08-20T00:32:07.409Z,100858.52
2022-08-20T00:36:47.535Z,100854.98
2022-08-20T00:41:23.261Z,100856.00
2022-08-20T00:45:56.000Z,100857.84
2022-08-20T00:50:12.806Z,100852.55
2022-08-20T00:55:01.006Z,100848.30
2022-08-20T00:59:47.450Z,100856.54
2022-08-20T01:04:28.444Z,100858.61
2022-08-20T01:09:09.820Z,100865.23
2022-08-20T01:13:42.757Z,100859.40
2022-08-20T01:18:16.129Z,100879.34
2022-08-20T01:23:01.427Z,100895.59
2022-08-20T01:27:48.255Z,100903.77
2022-08-20T01:32:33.057Z,100885.80
2022-08-20T01:37:06.760Z,100871.81
2022-08-20T01:42:11.201Z,100868.62
2022-08-20T01:46:44.288Z,100883.02
2022-08-20T01:51:17.576Z,100885.20
2022-08-20T01:55:50.694Z,100880.40
2022-08-20T02:00:29.602Z,100879.01
2022-08-20T02:04:57.091Z,100882.83
2022-08-20T02:09:43.382Z,100885.92
2022-08-20T02:14:29.907Z,100897.02
2022-08-20T02:19:02.785Z,100899.52
2022-08-20T02:23:49.578Z,100902.95
2022-08-20T02:28:22.249Z,100898.61
2022-08-20T02:33:08.975Z,100897.83
2022-08-20T02:37:55.575Z,100906.91
2022-08-20T02:42:28.423Z,100913.66
2022-08-20T02:46:53.845Z,100918.92
2022-08-20T02:56:02.559Z,100924.69
2022-08-20T03:00:25.588Z,100925.23
2022-08-20T03:04:40.523Z,100932.17
2022-08-20T03:09:13.984Z,100931.98
2022-08-20T03:13:45.795Z,100933.54
2022-08-20T03:18:21.308Z,100930.42
2022-08-20T03:22:54.605Z,100925.92
2022-08-20T03:27:26.857Z,100927.64
2022-08-20T03:32:08.796Z,100933.77
2022-08-20T03:36:55.982Z,100930.98
2022-08-20T03:50:54.546Z,100945.46
2022-08-20T03:55:26.064Z,100950.45
2022-08-20T03:59:59.434Z,100961.11
2022-08-20T04:04:32.418Z,100973.59
2022-08-20T04:09:05.462Z,100967.31
2022-08-20T04:13:42.633Z,100968.56
2022-08-20T04:18:30.102Z,100970.88
2022-08-20T04:23:17.009Z,100969.59
2022-08-20T04:28:03.586Z,100974.49
2022-08-20T04:32:36.461Z,100977.61
2022-08-20T04:37:16.967Z,100977.14
2022-08-20T04:41:50.181Z,100980.09
2022-08-20T04:46:23.341Z,100978.33
2022-08-20T04:51:10.278Z,100973.57
2022-08-20T04:55:48.589Z,100983.29
2022-08-20T05:00:35.701Z,100980.05
2022-08-20T05:04:50.958Z,100978.94
2022-08-20T05:09:24.236Z,100981.83
2022-08-20T05:14:11.337Z,100982.84
2022-08-20T05:18:58.458Z,100983.11
2022-08-20T05:23:31.568Z,100972.44
2022-08-20T05:28:04.978Z,100972.66
2022-08-20T05:37:27.232Z,100976.55
2022-08-20T05:42:03.837Z,100976.34
2022-08-20T05:46:27.882Z,100975.05
2022-08-20T05:51:00.495Z,100981.09
2022-08-20T05:55:33.478Z,100978.48
2022-08-20T06:00:20.069Z,100979.66
2022-08-20T06:04:56.311Z,100985.40
2022-08-20T06:09:34.871Z,100978.17
2022-08-20T06:14:08.083Z,100972.58
2022-08-20T06:18:41.659Z,100969.63
2022-08-20T06:23:54.270Z,100970.77
2022-08-20T06:28:21.724Z,100973.17
2022-08-20T06:33:07.147Z,100975.48
2022-08-20T06:37:34.557Z,100977.29
2022-08-20T06:42:20.739Z,100988.20
2022-08-20T06:46:48.934Z,101007.79
2022-08-20T06:51:35.702Z,101005.09
2022-08-20T06:56:09.420Z,101002.73
2022-08-20T07:00:42.407Z,101002.41
2022-08-20T07:05:15.463Z,101010.52
2022-08-20T07:10:02.485Z,101007.59
2022-08-20T07:14:29.580Z,101007.05
2022-08-20T07:19:02.914Z,101005.09
2022-08-20T07:23:36.042Z,101003.88
2022-08-20T07:28:09.151Z,101003.52
2022-08-20T07:32:57.790Z,101010.95
2022-08-20T07:37:45.470Z,101012.27
2022-08-20T07:42:25.025Z,101016.23
2022-08-20T07:46:58.322Z,101020.33
2022-08-20T07:51:26.821Z,101035.95
2022-08-20T07:55:59.905Z,101040.21
2022-08-20T08:00:32.750Z,101044.46
2022-08-20T08:05:19.531Z,101039.21
2022-08-20T08:09:53.127Z,101045.63
2022-08-20T08:14:26.283Z,101047.00
2022-08-20T08:18:59.258Z,101044.63
2022-08-20T08:23:46.572Z,101047.04
2022-08-20T08:28:12.481Z,101049.99
2022-08-20T08:32:45.433Z,101061.41
2022-08-20T08:37:19.248Z,101070.27
2022-08-20T08:42:17.191Z,101074.11
2022-08-20T08:46:44.064Z,101080.42
2022-08-20T08:51:11.488Z,101079.26
2022-08-20T08:55:45.040Z,101081.82
2022-08-20T09:00:18.469Z,101079.17
2022-08-20T09:04:46.371Z,101082.95
2022-08-20T09:09:19.593Z,101074.95
2022-08-20T09:13:51.597Z,101071.67
2022-08-20T09:18:18.945Z,101076.82
2022-08-20T09:22:52.002Z,101080.87
2022-08-20T09:32:27.837Z,101073.39
2022-08-20T09:37:02.529Z,101066.86
2022-08-20T09:41:49.629Z,101067.92
2022-08-20T09:46:27.234Z,101067.48
2022-08-20T09:51:00.494Z,101067.40
2022-08-20T09:55:33.991Z,101068.69
2022-08-20T10:00:20.726Z,101066.91
2022-08-20T10:04:53.248Z,101069.79
2022-08-20T10:09:26.270Z,101064.22
2022-08-20T10:13:59.089Z,101058.08
2022-08-20T10:18:32.603Z,101053.67
2022-08-20T10:23:04.837Z,101058.90
2022-08-20T10:27:35.997Z,101063.02
2022-08-20T10:32:04.916Z,101066.92
2022-08-20T10:36:37.924Z,101070.94
2022-08-20T10:41:11.547Z,101067.67
2022-08-20T10:45:37.570Z,101073.58
2022-08-20T10:50:20.114Z,101078.13
2022-08-20T10:54:53.100Z,101071.65
2022-08-20T10:59:26.508Z,101073.58
2022-08-20T11:04:13.131Z,101086.62
2022-08-20T11:08:47.890Z,101082.92
2022-08-20T11:13:08.593Z,101083.53
2022-08-20T11:17:32.951Z,101084.75
2022-08-20T11:22:10.006Z,101082.92
2022-08-20T11:26:56.636Z,101078.39
2022-08-20T11:31:33.801Z,101072.61
2022-08-20T11:36:00.668Z,101072.73
2022-08-20T11:40:33.440Z,101075.09
2022-08-20T11:45:09.178Z,101078.61
2022-08-20T11:49:44.899Z,101078.71
2022-08-20T11:54:10.161Z,101079.04
2022-08-20T11:58:58.538Z,101075.66
2022-08-20T12:03:24.785Z,101080.81
2022-08-20T12:07:58.135Z,101084.63
2022-08-20T12:12:14.346Z,101091.40
2022-08-20T12:16:48.192Z,101089.52
2022-08-20T12:21:33.901Z,101094.55
2022-08-20T12:26:08.182Z,101097.42
2022-08-20T12:30:43.340Z,101100.70
2022-08-20T12:35:16.762Z,101096.86
2022-08-20T12:39:42.202Z,101099.42
2022-08-20T12:43:57.739Z,101105.27
2022-08-20T12:48:28.887Z,101097.38
2022-08-20T12:53:10.186Z,101090.20
2022-08-20T12:57:40.675Z,101084.23
2022-08-20T13:02:18.454Z,101080.92
2022-08-20T13:06:52.070Z,101085.46
2022-08-20T13:11:20.060Z,101089.73
2022-08-20T13:15:53.280Z,101084.23
2022-08-20T13:20:26.539Z,101075.99
2022-08-20T13:25:07.795Z,101076.77
2022-08-20T13:29:40.571Z,101087.29
2022-08-20T13:34:08.202Z,101094.52
2022-08-20T13:38:42.018Z,101108.25
2022-08-20T13:43:12.067Z,101107.02
2022-08-20T13:47:56.402Z,101102.36
2022-08-20T13:52:29.691Z,101108.23
2022-08-20T13:57:00.731Z,101095.49
2022-08-20T14:01:28.254Z,101113.63
2022-08-20T14:06:09.750Z,101112.19
2022-08-20T14:10:34.812Z,101100.92
2022-08-20T14:15:07.468Z,101096.66
2022-08-20T14:19:46.436Z,101092.29
2022-08-20T14:24:27.427Z,101084.59
2022-08-20T14:29:12.059Z,101076.23
2022-08-20T14:33:51.158Z,101078.02
2022-08-20T14:38:25.189Z,101080.28
2022-08-20T14:42:58.659Z,101072.50
2022-08-20T14:47:32.059Z,101078.78
2022-08-20T14:52:04.890Z,101098.18
2022-08-20T14:56:51.832Z,101106.17
2022-08-20T15:01:17.635Z,101099.55
2022-08-20T15:05:57.161Z,101094.15
2022-08-20T15:10:30.284Z,101092.79
2022-08-20T15:15:13.225Z,101094.21
2022-08-20T15:19:40.891Z,101098.16
2022-08-20T15:24:18.863Z,101109.23
2022-08-20T15:28:53.898Z,101108.29
2022-08-20T15:33:27.874Z,101113.20
2022-08-20T15:38:08.384Z,101113.63
2022-08-20T15:42:35.885Z,101112.85
2022-08-20T15:47:08.775Z,101119.80
2022-08-20T15:51:56.091Z,101127.94
2022-08-20T15:56:11.645Z,101129.56
2022-08-20T16:00:50.312Z,101137.90
2022-08-20T16:05:24.447Z,101138.56
2022-08-20T16:10:21.525Z,101126.00
2022-08-20T16:14:57.691Z,101126.69
2022-08-20T16:19:33.453Z,101124.89
2022-08-20T16:24:17.016Z,101127.75
2022-08-20T16:28:45.821Z,101128.95
2022-08-20T16:33:16.568Z,101119.58
2022-08-20T16:38:08.095Z,101112.97
2022-08-20T16:42:25.978Z,101116.04
2022-08-20T16:47:14.235Z,101118.92
2022-08-20T16:51:51.720Z,101116.81
2022-08-20T16:56:25.191Z,101119.41
2022-08-20T17:00:56.141Z,101125.05
2022-08-20T17:05:29.329Z,101132.08
2022-08-20T17:10:03.173Z,101138.23
2022-08-20T17:14:34.428Z,101134.25
2022-08-20T17:19:06.249Z,101133.15
2022-08-20T17:23:56.052Z,101138.05
2022-08-20T17:28:35.405Z,101138.52
2022-08-20T17:33:10.337Z,101144.79
2022-08-20T17:37:51.684Z,101142.67
2022-08-20T17:42:16.322Z,101147.69
2022-08-20T17:51:36.690Z,101155.70
2022-08-20T17:56:10.030Z,101154.45
2022-08-20T18:00:49.322Z,101157.23
2022-08-20T18:05:23.212Z,101153.30
2022-08-20T18:09:56.484Z,101156.83
2022-08-20T18:14:27.840Z,101167.01
2022-08-20T18:19:05.189Z,101169.04
2022-08-20T18:23:47.816Z,101171.42
2022-08-20T18:33:10.014Z,101153.95
2022-08-20T18:37:43.605Z,101152.68
2022-08-20T18:42:11.796Z,101164.23
2022-08-20T18:46:42.658Z,101169.89
2022-08-20T18:51:30.336Z,101165.42
2022-08-20T18:56:08.263Z,101166.41
2022-08-20T19:00:44.666Z,101166.17
2022-08-20T19:05:36.100Z,101154.16
2022-08-20T19:10:24.170Z,101151.32
2022-08-20T19:15:29.903Z,101165.41
2022-08-20T19:20:02.946Z,101164.65
2022-08-20T19:24:35.742Z,101144.30
2022-08-20T19:29:07.200Z,101147.26
2022-08-20T19:33:53.740Z,101154.67
2022-08-20T19:38:36.414Z,101152.56
2022-08-20T19:43:28.217Z,101142.30
2022-08-20T19:48:12.317Z,101143.80
2022-08-20T19:52:44.008Z,101131.80
2022-08-20T19:57:20.067Z,101132.92
2022-08-20T20:06:36.153Z,101124.58
2022-08-20T20:11:03.578Z,101122.84
2022-08-20T20:15:44.903Z,101122.39
2022-08-20T20:20:25.072Z,101129.63
2022-08-20T20:25:11.262Z,101138.23
2022-08-20T20:29:31.648Z,101141.64
2022-08-20T20:34:17.968Z,101145.63
2022-08-20T20:38:43.159Z,101146.65
2022-08-20T20:42:55.876Z,101143.48
2022-08-20T20:47:29.382Z,101146.33
2022-08-20T20:51:41.722Z,101144.45
2022-08-20T20:56:24.782Z,101147.04
2022-08-20T21:01:02.095Z,101147.23
2022-08-20T21:05:35.580Z,101148.90
2022-08-20T21:09:40.637Z,101139.73
2022-08-20T21:14:14.641Z,101130.23
2022-08-20T21:18:41.991Z,101131.55
2022-08-20T21:22:54.525Z,101130.75
2022-08-20T21:27:40.668Z,101121.10
2022-08-20T21:32:27.026Z,101112.52
2022-08-20T21:36:39.040Z,101115.32
2022-08-20T21:41:11.880Z,101114.43
2022-08-20T21:45:24.463Z,101109.59
2022-08-20T21:49:41.391Z,101108.73
2022-08-20T21:54:00.536Z,101107.05
2022-08-20T21:58:13.031Z,101103.48
2022-08-20T22:02:18.324Z,101104.35
2022-08-20T22:06:25.995Z,101112.20
2022-08-20T22:10:58.726Z,101126.17
2022-08-20T22:15:03.925Z,101115.80
2022-08-20T22:19:29.955Z,101089.91
2022-08-20T22:23:42.618Z,101106.64
2022-08-20T22:27:55.486Z,101116.83
2022-08-20T22:31:57.215Z,101106.65
2022-08-20T22:36:04.129Z,101095.52
2022-08-20T22:40:16.891Z,101100.14
2022-08-20T22:44:49.510Z,101111.19
2022-08-20T22:49:02.276Z,101112.43
2022-08-20T22:53:26.402Z,101115.02
2022-08-20T22:57:59.570Z,101121.89
2022-08-20T23:02:28.414Z,101133.94
2022-08-20T23:06:41.029Z,101131.28
2022-08-20T23:11:27.525Z,101134.56
2022-08-20T23:16:00.950Z,101130.33
2022-08-20T23:20:34.078Z,101118.65
2022-08-20T23:24:47.236Z,101111.95
2022-08-20T23:29:34.230Z,101114.90
2022-08-20T23:34:15.039Z,101105.73
2022-08-20T23:38:32.389Z,101103.29
2022-08-20T23:42:58.589Z,101104.05
2022-08-20T23:47:25.388Z,101100.76
2022-08-20T23:56:31.688Z,101082.27
